Time;durP1;ratioP1;P1;durP2;ratioP2;P2;SDS_P1;SDS_P2;PMS_P1;PMS_P2;Temp;Humidity;BMP_temperature;BMP_pressure;BME280_temperature;BME280_humidity;BME280_pressure;Samples;Min_cycle;Max_cycle;Signal;HPM_P1;HPM_P2
2022/06/18 00:00:23;;;;;;;40.30;29.85;;;;;;;29.77;71.24;100795.22;5044828;28;65860;-37
2022/06/18 00:02:54;;;;;;;39.78;27.05;;;;;;;30.30;71.58;100875.31;5046816;28;69751;-38
2022/06/18 00:05:25;;;;;;;26.37;23.73;;;;;;;30.31;72.41;100876.13;5050557;28;65358;-37
2022/06/18 00:07:57;;;;;;;30.17;24.13;;;;;;;30.31;71.54;100865.31;5047051;28;68745;-36
2022/06/18 00:10:30;;;;;;;28.27;23.73;;;;;;;30.12;71.67;100835.44;5048690;28;65438;-37
2022/06/18 00:13:42;;;;;;;33.08;24.05;;;;;;;30.16;72.64;100833.94;5037632;28;69983;-37
2022/06/18 00:16:16;;;;;;;28.48;23.58;;;;;;;30.52;71.70;100878.53;5044191;28;66430;-36
2022/06/18 00:18:48;;;;;;;31.58;23.35;;;;;;;30.59;71.34;100887.44;5039904;28;69000;-37
2022/06/18 00:21:23;;;;;;;30.08;22.60;;;;;;;30.59;72.10;100890.16;5041090;28;65249;-40
2022/06/18 00:23:55;;;;;;;24.20;21.77;;;;;;;30.70;71.97;100894.00;5027922;28;70114;-37
2022/06/18 00:26:25;;;;;;;24.92;22.27;;;;;;;30.77;72.67;100904.81;5044647;28;65478;-37
2022/06/18 00:28:56;;;;;;;28.70;21.70;;;;;;;30.80;72.24;100901.69;5043604;28;69299;-38
2022/06/18 00:31:27;;;;;;;27.25;21.48;;;;;;;30.86;71.88;100906.22;5044377;28;65184;-39
2022/06/18 00:33:58;;;;;;;37.72;22.90;;;;;;;30.93;72.19;100907.03;5053094;28;70291;-36
2022/06/18 00:36:29;;;;;;;30.50;22.60;;;;;;;30.94;72.96;100901.38;5046288;28;66078;-36
2022/06/18 00:39:00;;;;;;;27.02;21.70;;;;;;;30.94;71.85;100900.53;5045739;28;69745;-36
2022/06/18 00:41:33;;;;;;;23.95;20.40;;;;;;;31.00;72.18;100896.94;5053224;28;65952;-37
2022/06/18 00:44:25;;;;;;;30.98;19.20;;;;;;;31.01;72.24;100901.34;5038297;28;70530;-37
2022/06/18 00:47:08;;;;;;;;;;;;;;;30.79;70.59;100911.66;5027598;28;66823;-38
2022/06/18 00:50:27;;;;;;;17.85;15.98;;;;;;;31.11;68.91;100903.53;5046704;28;70260;-36
2022/06/18 00:53:09;;;;;;;21.85;16.80;;;;;;;31.21;67.26;100886.78;5052460;28;66454;-36
2022/06/18 00:55:53;;;;;;;16.33;14.43;;;;;;;31.38;67.15;100898.75;5045862;28;69986;-36
2022/06/18 00:58:47;;;;;;;15.65;14.13;;;;;;;31.53;66.45;100906.50;5057463;28;66121;-36
2022/06/18 01:01:22;;;;;;;16.98;15.18;;;;;;;31.51;66.61;100898.63;5054632;28;69988;-36
2022/06/18 01:03:55;;;;;;;21.52;14.75;;;;;;;31.64;66.41;100907.66;5033833;28;64168;-37
2022/06/18 01:06:31;;;;;;;20.50;15.25;;;;;;;31.66;66.93;100914.50;5044328;28;70370;-35
2022/06/18 01:09:13;;;;;;;14.68;13.38;;;;;;;31.73;66.79;100909.00;5050394;28;66437;-35
2022/06/18 01:11:46;;;;;;;15.02;13.63;;;;;;;31.68;65.70;100884.44;5044874;28;69285;-36
2022/06/18 01:14:18;;;;;;;20.63;14.82;;;;;;;31.47;65.79;100854.00;5054070;28;66409;-36
2022/06/18 01:16:50;;;;;;;21.70;14.27;;;;;;;31.85;65.66;100914.53;5047064;28;70446;-36
2022/06/18 01:19:30;;;;;;;15.18;13.50;;;;;;;31.54;65.53;100860.19;5042325;28;65513;-36
2022/06/18 01:22:12;;;;;;;16.23;13.18;;;;;;;31.92;65.86;100926.97;5050085;28;69918;-36
2022/06/18 01:24:44;;;;;;;14.68;13.13;;;;;;;31.94;65.14;100919.44;5052311;28;65979;-37
2022/06/18 01:27:16;;;;;;;17.25;13.80;;;;;;;31.96;64.57;100916.50;5056443;28;69162;-36
2022/06/18 01:29:49;;;;;;;13.90;12.40;;;;;;;31.94;64.88;100910.47;5052224;28;66270;-37
2022/06/18 01:32:22;;;;;;;15.07;13.25;;;;;;;32.03;64.58;100923.50;5047421;28;70323;-36
2022/06/18 01:34:53;;;;;;;14.13;12.88;;;;;;;32.04;64.52;100925.16;5042437;28;65239;-37
2022/06/18 01:37:23;;;;;;;14.23;12.88;;;;;;;32.05;64.50;100926.81;5048976;28;71599;-35
2022/06/18 01:39:58;;;;;;;15.27;13.23;;;;;;;32.05;64.31;100910.53;5050374;28;66454;-36
2022/06/18 01:42:37;;;;;;;14.68;12.70;;;;;;;31.71;64.32;100855.00;5049272;28;69116;-37
2022/06/18 01:45:16;;;;;;;13.98;12.45;;;;;;;32.07;63.52;100906.75;5043952;28;64759;-37
2022/06/18 01:47:48;;;;;;;13.90;12.55;;;;;;;32.19;63.50;100926.66;5053444;28;70936;-36
2022/06/18 01:50:47;;;;;;;18.63;12.25;;;;;;;32.12;63.85;100917.75;5014151;28;65268;-36
2022/06/18 01:53:30;;;;;;;12.98;11.68;;;;;;;32.25;62.92;100921.13;5044456;28;69424;-36
2022/06/18 01:56:13;;;;;;;12.68;11.63;;;;;;;32.24;62.93;100929.53;5045016;28;66295;-36
2022/06/18 01:58:49;;;;;;;12.20;11.27;;;;;;;32.27;63.08;100920.91;5049771;28;69106;-36
2022/06/18 02:01:32;;;;;;;12.55;11.30;;;;;;;32.32;62.92;100925.63;5048710;28;66075;-35
2022/06/18 02:04:04;;;;;;;14.85;11.85;;;;;;;32.33;62.93;100933.56;5043136;28;70544;-36
2022/06/18 02:06:37;;;;;;;13.15;11.75;;;;;;;32.35;62.46;100939.59;5036375;28;66121;-37
2022/06/18 02:09:17;;;;;;;13.02;11.82;;;;;;;32.37;62.49;100940.19;5052848;27;69778;-37
2022/06/18 02:11:48;;;;;;;11.60;10.68;;;;;;;32.39;62.47;100938.06;5024550;28;65760;-36
2022/06/18 02:14:20;;;;;;;11.18;10.18;;;;;;;31.96;62.33;100846.78;5047063;28;71073;-36
2022/06/18 02:16:54;;;;;;;10.82;10.02;;;;;;;32.34;62.19;100907.25;5043457;28;65706;-36
2022/06/18 02:19:25;;;;;;;10.30;9.50;;;;;;;32.42;61.81;100926.75;5053437;28;70467;-36
2022/06/18 02:21:58;;;;;;;10.30;9.40;;;;;;;32.47;61.99;100928.81;5049184;28;65307;-36
2022/06/18 02:24:31;;;;;;;10.98;10.05;;;;;;;32.52;61.57;100936.28;5047200;28;69908;-36
2022/06/18 02:27:03;;;;;;;9.80;8.82;;;;;;;32.47;61.74;100928.81;5053760;28;67758;-36
2022/06/18 02:29:34;;;;;;;10.10;9.30;;;;;;;32.58;61.12;100933.47;5045040;28;69987;-36
2022/06/18 02:32:18;;;;;;;10.40;9.20;;;;;;;32.61;61.48;100945.75;5045745;28;66141;-37
2022/06/18 02:34:50;;;;;;;9.82;8.85;;;;;;;32.62;61.24;100936.53;5041350;28;69788;-38
2022/06/18 02:37:25;;;;;;;9.57;8.68;;;;;;;32.24;61.20;100869.81;5024917;28;66075;-36
2022/06/18 02:40:02;;;;;;;9.80;8.40;;;;;;;32.67;60.97;100942.13;5048333;28;70170;-36
2022/06/18 02:42:34;;;;;;;9.40;8.65;;;;;;;32.68;60.73;100930.19;5050836;28;65438;-41
2022/06/18 02:45:09;;;;;;;9.30;8.43;;;;;;;32.63;60.63;100921.91;5048062;28;70343;-37
2022/06/18 02:47:43;;;;;;;8.32;7.72;;;;;;;32.72;60.88;100931.38;5055119;28;65477;-35
2022/06/18 02:50:16;;;;;;;8.70;8.05;;;;;;;32.41;60.72;100864.56;5011468;28;70618;-36
2022/06/18 02:52:50;;;;;;;8.10;7.60;;;;;;;32.35;60.44;100843.78;5040062;28;66210;-35
2022/06/18 02:55:29;;;;;;;8.60;7.90;;;;;;;32.63;59.91;100886.63;5052687;28;69620;-35
2022/06/18 02:58:29;;;;;;;8.88;8.07;;;;;;;32.32;60.45;100847.78;5033372;28;65465;-35
2022/06/18 03:01:03;;;;;;;8.38;7.78;;;;;;;32.86;60.18;100911.09;5046108;28;71134;-35
2022/06/18 03:03:40;;;;;;;7.80;7.30;;;;;;;32.87;60.29;100901.06;5054904;28;66812;-36
2022/06/18 03:06:11;;;;;;;7.95;7.38;;;;;;;32.86;60.28;100899.41;5037413;28;70098;-36
2022/06/18 03:08:46;;;;;;;7.60;7.00;;;;;;;32.88;60.05;100902.72;5020866;28;65497;-36
2022/06/18 03:14:13;;;;;;;7.47;6.73;;;;;;;32.98;59.97;100907.56;5061768;28;65687;-35
2022/06/18 03:16:44;;;;;;;7.05;6.35;;;;;;;33.04;59.87;100902.09;5027808;28;70006;-37
2022/06/18 03:19:35;;;;;;;6.70;6.07;;;;;;;33.01;59.71;100907.97;5053251;28;65670;-36
2022/06/18 03:22:12;;;;;;;6.18;5.78;;;;;;;32.98;59.54;100880.41;5045553;28;70418;-37
2022/06/18 03:24:44;;;;;;;6.55;6.15;;;;;;;33.13;59.52;100899.84;5052341;28;66468;-37
2022/06/18 03:27:18;;;;;;;7.05;6.45;;;;;;;33.18;59.34;100908.09;5050080;28;69410;-37
2022/06/18 03:29:53;;;;;;;6.00;5.60;;;;;;;33.18;59.48;100902.66;5044892;28;66035;-36
2022/06/18 03:32:25;;;;;;;6.03;5.60;;;;;;;33.21;59.42;100896.78;5041609;28;69967;-36
2022/06/18 03:34:56;;;;;;;6.50;6.00;;;;;;;33.25;59.76;100892.50;5064051;28;66055;-37
2022/06/18 03:37:27;;;;;;;5.40;5.10;;;;;;;33.25;59.16;100889.78;5068297;28;69872;-37
2022/06/18 03:39:58;;;;;;;6.43;5.82;;;;;;;33.22;59.16;100892.97;5071963;28;65989;-36
2022/06/18 03:42:29;;;;;;;;;;;;;;;32.94;59.85;100894.47;5041022;28;70126;-36
2022/06/18 03:45:00;;;;;;;6.13;5.72;;;;;;;33.26;59.03;100888.72;5048172;28;66193;-35
2022/06/18 03:47:31;;;;;;;6.43;5.95;;;;;;;33.27;59.27;100882.22;5050398;28;69308;-43
2022/06/18 03:50:03;;;;;;;5.03;4.60;;;;;;;33.30;59.12;100884.47;5048707;28;67220;-37
2022/06/18 03:52:36;;;;;;;5.97;5.47;;;;;;;33.29;59.24;100871.97;5014545;28;68293;-36
2022/06/18 03:55:09;;;;;;;6.15;5.00;;;;;;;33.31;58.90;100871.69;5057344;28;65418;-37
2022/06/18 03:57:40;;;;;;;5.32;5.00;;;;;;;33.25;58.61;100864.50;5042362;28;70254;-37
2022/06/18 04:00:22;;;;;;;5.50;5.10;;;;;;;32.89;58.74;100801.94;5058304;28;66540;-37
2022/06/18 04:02:59;;;;;;;5.47;5.07;;;;;;;33.34;58.78;100853.00;5047207;28;69313;-36
2022/06/18 04:05:35;;;;;;;5.20;4.88;;;;;;;33.02;58.34;100794.69;5049523;28;66552;-37
2022/06/18 04:08:09;;;;;;;5.43;5.03;;;;;;;33.37;58.59;100841.66;5049476;28;70069;-37
2022/06/18 04:10:46;;;;;;;5.80;5.40;;;;;;;33.40;58.43;100834.09;5051156;28;66339;-37
2022/06/18 04:13:17;;;;;;;6.13;5.65;;;;;;;33.37;58.78;100833.50;5047894;28;69775;-38
2022/06/18 04:16:14;;;;;;;5.65;5.15;;;;;;;33.43;58.38;100841.78;5047083;28;65578;-37
2022/06/18 04:18:46;;;;;;;5.13;4.72;;;;;;;33.37;58.83;100830.78;5054489;28;70595;-36
2022/06/18 04:21:18;;;;;;;5.28;4.88;;;;;;;33.17;58.68;100799.63;5041808;28;65354;-36
2022/06/18 04:23:48;;;;;;;4.82;4.53;;;;;;;33.46;58.31;100834.00;5042040;28;70051;-36
2022/06/18 04:26:19;;;;;;;4.53;4.22;;;;;;;33.51;58.34;100825.09;5023263;28;66255;-36
2022/06/18 04:28:50;;;;;;;5.07;4.60;;;;;;;33.53;58.55;100831.16;5049088;28;68912;-36
2022/06/18 04:31:23;;;;;;;4.55;4.15;;;;;;;33.54;57.92;100813.75;5059621;28;66964;-36
2022/06/18 04:33:55;;;;;;;4.63;4.32;;;;;;;33.56;58.08;100814.34;5052509;28;70732;-37
2022/06/18 04:36:52;;;;;;;4.80;4.40;;;;;;;33.55;57.99;100804.56;5047142;28;66485;-36
2022/06/18 04:39:35;;;;;;;4.95;4.35;;;;;;;33.60;58.07;100807.38;5063402;28;70345;-36
2022/06/18 04:42:29;;;;;;;4.50;4.20;;;;;;;33.64;58.04;100805.81;5050761;28;66265;-36
2022/06/18 04:45:01;;;;;;;5.72;4.00;;;;;;;33.63;57.68;100796.03;5058185;28;70097;-37
2022/06/18 04:47:58;;;;;;;4.38;4.07;;;;;;;33.67;57.84;100794.44;5046294;28;66958;-37
2022/06/18 04:50:37;;;;;;;4.38;4.07;;;;;;;32.91;57.65;100669.44;5047603;28;71077;-36
2022/06/18 04:53:09;;;;;;;4.32;4.00;;;;;;;33.71;57.96;100792.91;5050430;28;65782;-37
2022/06/18 04:55:42;;;;;;;4.32;4.03;;;;;;;33.64;57.81;100775.09;5048939;28;70200;-39
2022/06/18 04:58:13;;;;;;;4.30;4.00;;;;;;;33.73;57.55;100779.88;5059762;28;65836;-42
2022/06/18 05:00:51;;;;;;;4.55;4.25;;;;;;;33.74;57.80;100773.38;5049191;28;70014;-37
2022/06/18 05:03:51;;;;;;;6.90;3.78;;;;;;;33.76;57.53;100773.13;5054668;28;66055;-37
2022/06/18 05:06:49;;;;;;;4.05;3.65;;;;;;;33.77;57.82;100759.31;5076656;28;70276;-36
2022/06/18 05:09:29;;;;;;;4.18;3.70;;;;;;;33.81;57.53;100757.72;5060705;28;66572;-36
2022/06/18 05:12:09;;;;;;;5.88;3.60;;;;;;;33.84;57.74;100764.59;5059466;28;70138;-36
2022/06/18 05:14:57;;;;;;;3.95;3.65;;;;;;;33.87;57.66;100752.38;5038352;28;66329;-37
2022/06/18 05:17:33;;;;;;;3.83;3.53;;;;;;;33.81;57.49;100735.97;5052477;28;69426;-36
2022/06/18 05:20:19;;;;;;;7.78;3.05;;;;;;;33.92;56.90;100741.59;5038565;28;65847;-36
2022/06/18 05:22:53;;;;;;;3.78;3.47;;;;;;;33.94;57.43;100742.19;5042181;28;70200;-36
2022/06/18 05:25:25;;;;;;;3.83;3.47;;;;;;;33.95;57.14;100738.38;5045563;28;66567;-37
2022/06/18 05:27:56;;;;;;;;;;;;;;;33.66;57.77;100738.41;5031869;28;69163;-36
2022/06/18 05:30:31;;;;;;;5.45;3.88;;;;;;;33.95;57.35;100722.06;5044920;28;65657;-35
2022/06/18 05:33:04;;;;;;;5.25;3.65;;;;;;;34.04;57.33;100723.28;5033109;28;69878;-36
2022/06/18 05:35:44;;;;;;;3.50;3.20;;;;;;;34.06;56.73;100704.03;5049861;28;65494;-36
2022/06/18 05:38:19;;;;;;;4.47;3.25;;;;;;;34.06;56.52;100696.69;5056369;28;69163;-36
2022/06/18 05:40:51;;;;;;;3.83;3.20;;;;;;;34.09;57.01;100690.75;5048718;28;66302;-36
2022/06/18 05:43:22;;;;;;;3.17;2.97;;;;;;;34.10;57.12;100687.00;5039990;28;69817;-37
2022/06/18 05:45:53;;;;;;;3.45;3.15;;;;;;;34.09;56.83;100690.75;5044918;28;64578;-34
2022/06/18 05:48:28;;;;;;;3.72;3.40;;;;;;;34.05;56.80;100672.47;5049642;28;70632;-35
2022/06/18 05:50:58;;;;;;;3.20;3.00;;;;;;;34.04;56.67;100674.31;5036416;28;66302;-34
2022/06/18 05:53:32;;;;;;;3.33;3.10;;;;;;;34.16;56.55;100685.16;5034490;28;69261;-35
2022/06/18 05:56:11;;;;;;;3.20;3.00;;;;;;;34.16;56.49;100675.09;5044155;28;66218;-36
2022/06/18 05:59:19;;;;;;;3.10;2.90;;;;;;;34.17;56.72;100676.75;5026581;28;69413;-36
2022/06/18 06:01:50;;;;;;;3.03;2.75;;;;;;;34.16;56.53;100680.53;5052729;28;66042;-36
2022/06/18 06:04:22;;;;;;;3.87;3.47;;;;;;;34.18;56.83;100670.22;5047551;28;70191;-34
2022/06/18 06:06:55;;;;;;;3.47;3.17;;;;;;;33.85;57.44;100667.44;5044059;28;65600;-36
2022/06/18 06:12:17;;;;;;;3.38;3.13;;;;;;;33.61;58.58;100653.19;5045851;28;66627;-35
2022/06/18 06:14:48;;;;;;;3.10;2.90;;;;;;;33.52;58.89;100650.84;5044521;28;70796;-35
2022/06/18 06:17:23;;;;;;;3.25;3.05;;;;;;;33.43;59.60;100632.41;5046627;28;66266;-35
2022/06/18 06:20:00;;;;;;;3.35;2.95;;;;;;;33.35;59.28;100618.16;5046825;28;70266;-36
2022/06/18 06:22:31;;;;;;;3.00;2.80;;;;;;;33.38;59.86;100625.00;5049755;28;66556;-36
2022/06/18 06:25:02;;;;;;;3.75;2.88;;;;;;;33.43;60.04;100624.25;5045439;28;70291;-38
2022/06/18 06:27:33;;;;;;;2.85;2.65;;;;;;;33.38;60.16;100623.09;5044520;28;66534;-37
2022/06/18 06:30:04;;;;;;;6.97;2.70;;;;;;;33.38;60.25;100608.69;5049386;28;69489;-35
2022/06/18 06:32:40;;;;;;;4.78;2.58;;;;;;;33.38;60.04;100612.22;5045361;28;65598;-36
2022/06/18 06:35:12;;;;;;;6.03;2.97;;;;;;;33.41;60.49;100607.38;5053580;28;70161;-36
2022/06/18 06:37:43;;;;;;;2.30;2.10;;;;;;;33.43;60.47;100591.63;5051563;28;65084;-34
2022/06/18 06:40:15;;;;;;;4.32;3.38;;;;;;;33.39;60.56;100583.13;5042194;28;69994;-35
2022/06/18 06:42:51;;;;;;;2.70;2.50;;;;;;;32.97;60.55;100510.06;5053214;28;66056;-35
2022/06/18 06:45:28;;;;;;;2.70;2.50;;;;;;;33.21;60.83;100556.16;5050798;28;70267;-36
2022/06/18 06:47:59;;;;;;;4.90;2.58;;;;;;;33.43;60.46;100588.91;5057109;28;65799;-35
2022/06/18 06:50:30;;;;;;;3.35;2.20;;;;;;;33.36;60.85;100579.00;5051178;28;69816;-35
2022/06/18 06:53:01;;;;;;;4.40;2.57;;;;;;;33.37;60.93;100583.38;5050408;28;66465;-36
2022/06/18 06:58:26;;;;;;;2.80;2.60;;;;;;;33.45;61.95;100586.78;5050756;28;66545;-36
2022/06/18 07:00:58;;;;;;;2.80;2.60;;;;;;;33.47;62.63;100584.63;5051229;28;69334;-37
2022/06/18 07:03:33;;;;;;;3.28;2.90;;;;;;;33.51;62.29;100569.47;5047340;28;66126;-37
2022/06/18 07:06:04;;;;;;;2.67;2.47;;;;;;;33.52;62.54;100563.81;5040055;28;69993;-37
2022/06/18 07:08:35;;;;;;;2.85;2.65;;;;;;;33.51;62.35;100553.97;5051105;28;66597;-36
2022/06/18 07:11:06;;;;;;;4.68;2.90;;;;;;;33.45;62.30;100543.25;5044723;28;69875;-37
2022/06/18 07:13:37;;;;;;;3.72;3.50;;;;;;;33.54;61.93;100541.81;5050579;28;65482;-36
2022/06/18 07:16:12;;;;;;;4.18;3.78;;;;;;;33.59;61.55;100539.19;5046913;28;70046;-37
2022/06/18 07:18:43;;;;;;;4.07;3.33;;;;;;;33.60;60.93;100535.41;5042550;28;66791;-35
2022/06/18 07:21:15;;;;;;;3.80;3.50;;;;;;;33.26;60.61;100486.41;5042444;28;69866;-36
2022/06/18 07:23:46;;;;;;;5.90;3.70;;;;;;;33.64;60.27;100541.97;5046299;28;66194;-36
2022/06/18 07:26:21;;;;;;;4.68;3.67;;;;;;;33.39;60.12;100501.56;5048390;28;69594;-36
2022/06/18 07:28:52;;;;;;;5.70;3.95;;;;;;;33.66;60.21;100545.28;5049169;28;66107;-36
2022/06/18 07:31:32;;;;;;;5.70;3.80;;;;;;;33.25;60.15;100468.44;5044908;28;69988;-37
2022/06/18 07:34:07;;;;;;;4.05;3.75;;;;;;;33.66;60.57;100531.69;5046701;28;65922;-36
2022/06/18 07:36:38;;;;;;;3.78;3.47;;;;;;;33.66;60.95;100528.97;5043047;28;69608;-35
2022/06/18 07:39:09;;;;;;;5.53;3.58;;;;;;;33.57;61.32;100519.56;5046011;28;66592;-36
2022/06/18 07:41:48;;;;;;;3.87;3.57;;;;;;;33.20;61.69;100465.63;5044272;28;70163;-35
2022/06/18 07:44:19;;;;;;;4.18;3.78;;;;;;;33.67;62.22;100544.22;5044976;28;65729;-37
2022/06/18 07:46:52;;;;;;;4.37;3.97;;;;;;;33.59;62.39;100522.84;5047820;28;69725;-36
2022/06/18 07:49:23;;;;;;;3.92;3.42;;;;;;;33.67;62.93;100536.03;5049145;28;66297;-36
2022/06/18 07:51:53;;;;;;;8.07;4.07;;;;;;;33.69;63.57;100516.78;5044171;28;70143;-37
2022/06/18 07:54:24;;;;;;;4.68;4.28;;;;;;;33.71;63.50;100520.03;5041004;28;65573;-35
2022/06/18 07:56:55;;;;;;;4.67;4.23;;;;;;;33.69;63.78;100528.47;5043467;28;71318;-36
2022/06/18 07:59:26;;;;;;;7.28;4.10;;;;;;;33.71;63.52;100511.88;5047710;28;66521;-36
2022/06/18 08:01:57;;;;;;;4.32;3.88;;;;;;;33.71;63.97;100526.34;5043311;28;69834;-36
2022/06/18 08:04:28;;;;;;;3.87;3.47;;;;;;;33.63;63.89;100510.44;5045245;28;66414;-36
2022/06/18 08:06:59;;;;;;;9.98;3.53;;;;;;;33.60;64.25;100508.22;5044296;28;69626;-36
2022/06/18 08:09:30;;;;;;;4.28;3.90;;;;;;;33.68;64.58;100524.09;5052507;28;66103;-36
2022/06/18 08:12:01;;;;;;;4.25;3.95;;;;;;;33.71;64.50;100526.34;5050909;28;69466;-35
2022/06/18 08:14:33;;;;;;;6.10;4.30;;;;;;;33.71;65.14;100526.34;5049759;28;66381;-36
2022/06/18 08:17:04;;;;;;;6.80;4.00;;;;;;;33.65;66.48;100537.38;5047915;28;69611;-36
2022/06/18 08:19:35;;;;;;;12.75;4.30;;;;;;;33.62;66.40;100526.97;5053132;28;66021;-36
2022/06/18 08:22:06;;;;;;;6.83;4.40;;;;;;;33.63;66.75;100526.75;5050692;28;71150;-35
2022/06/18 08:24:36;;;;;;;11.05;4.63;;;;;;;33.56;66.28;100528.78;5039569;28;65279;-36
2022/06/18 08:27:07;;;;;;;4.47;4.18;;;;;;;33.62;64.32;100524.25;5039142;28;70113;-36
2022/06/18 08:29:38;;;;;;;10.30;5.75;;;;;;;33.55;62.59;100527.16;5037204;28;66399;-35
2022/06/18 08:32:09;;;;;;;8.27;5.80;;;;;;;33.54;61.30;100509.19;5038745;28;69125;-37
2022/06/18 08:34:40;;;;;;;10.38;5.10;;;;;;;33.55;60.81;100516.28;5047712;28;65425;-36
2022/06/18 08:37:11;;;;;;;13.60;5.78;;;;;;;33.49;61.25;100501.75;5043535;28;69728;-36
2022/06/18 08:39:42;;;;;;;6.53;5.32;;;;;;;33.59;61.48;100520.13;5046569;28;66000;-35
2022/06/18 08:42:36;;;;;;;7.47;5.60;;;;;;;33.18;61.38;100467.78;5050736;28;71836;-36
2022/06/18 08:45:25;;;;;;;11.65;5.82;;;;;;;33.64;62.62;100524.84;5038658;28;66248;-36
2022/06/18 08:48:01;;;;;;;15.02;7.53;;;;;;;33.65;61.52;100537.38;5041578;28;69578;-36
2022/06/18 08:50:53;;;;;;;14.23;8.82;;;;;;;33.61;62.38;100541.66;5038984;28;65555;-36
2022/06/18 08:53:42;;;;;;;8.57;5.93;;;;;;;33.47;63.84;100533.78;5058857;28;70253;-35
2022/06/18 08:56:21;;;;;;;6.60;5.20;;;;;;;33.51;64.21;100531.41;5055514;28;66700;-35
2022/06/18 08:59:23;;;;;;;5.70;4.78;;;;;;;33.28;65.23;100521.50;5066273;28;70569;-36
2022/06/18 09:02:10;;;;;;;7.53;5.82;;;;;;;33.25;65.33;100544.56;5044939;28;65861;-36
2022/06/18 09:04:59;;;;;;;6.93;5.03;;;;;;;33.15;64.76;100541.66;5054924;28;70073;-35
2022/06/18 09:08:14;;;;;;;6.35;4.95;;;;;;;32.99;63.60;100550.53;5059067;28;65579;-35
2022/06/18 09:10:59;;;;;;;5.07;4.45;;;;;;;32.94;62.76;100546.69;5053099;28;70445;-35
2022/06/18 09:14:02;;;;;;;6.03;5.43;;;;;;;32.76;63.89;100560.44;5061516;28;65695;-35
2022/06/18 09:16:44;;;;;;;23.83;19.45;;;;;;;32.95;64.43;100571.94;5055960;28;69687;-35
2022/06/18 09:19:20;;;;;;;49.60;35.55;;;;;;;32.92;64.79;100573.25;5049362;28;66270;-35
2022/06/18 09:21:56;;;;;;;54.08;41.92;;;;;;;32.70;65.19;100515.22;5058867;28;70347;-36
2022/06/18 09:24:33;;;;;;;59.88;42.53;;;;;;;32.53;65.34;100488.00;5047371;28;65790;-35
2022/06/18 09:27:11;;;;;;;48.70;34.63;;;;;;;32.62;64.40;100485.72;5054426;28;70470;-36
2022/06/18 09:30:09;;;;;;;28.58;24.00;;;;;;;32.93;62.29;100536.03;5059130;27;65741;-35
2022/06/18 09:32:40;;;;;;;28.98;21.88;;;;;;;32.96;60.87;100537.44;5042727;28;70039;-35
2022/06/18 09:35:21;;;;;;;21.30;17.25;;;;;;;32.50;58.58;100464.06;5055332;28;65848;-36
2022/06/18 09:38:27;;;;;;;16.20;13.50;;;;;;;32.88;58.70;100520.47;5043161;28;69875;-35
2022/06/18 09:41:07;;;;;;;14.85;13.30;;;;;;;32.90;58.39;100514.78;5055408;28;66427;-35
2022/06/18 09:44:23;;;;;;;11.75;10.95;;;;;;;32.37;57.93;100429.84;5054854;28;69596;-35
2022/06/18 09:47:00;;;;;;;15.15;9.50;;;;;;;32.67;58.21;100434.25;5044710;28;65132;-35
2022/06/18 09:49:32;;;;;;;9.65;8.82;;;;;;;33.25;58.93;100513.84;5041503;28;70147;-35
2022/06/18 09:52:12;;;;;;;10.25;9.25;;;;;;;33.34;58.93;100521.31;5047383;28;65053;-35
2022/06/18 09:55:06;;;;;;;10.20;9.02;;;;;;;33.41;58.03;100521.19;5049220;28;69986;-35
2022/06/18 09:57:42;;;;;;;14.30;7.95;;;;;;;33.57;57.60;100514.13;5042771;28;66546;-35
2022/06/18 10:00:17;;;;;;;8.23;7.43;;;;;;;33.29;57.25;100447.88;5044106;28;70574;-35
2022/06/18 10:02:59;;;;;;;11.02;6.90;;;;;;;33.57;55.83;100470.59;5058231;28;65675;-35
2022/06/18 10:08:40;;;;;;;6.57;6.07;;;;;;;33.72;55.79;100489.88;5042810;28;66199;-35
2022/06/18 10:11:11;;;;;;;7.80;6.65;;;;;;;33.79;55.36;100516.91;5051658;28;68816;-36
2022/06/18 10:13:48;;;;;;;7.75;6.93;;;;;;;33.29;54.98;100450.59;5056881;28;66569;-36
2022/06/18 10:16:52;;;;;;;7.22;6.53;;;;;;;33.75;54.43;100535.63;5047297;28;70620;-36
2022/06/18 10:19:49;;;;;;;12.57;9.35;;;;;;;33.57;54.55;100481.47;5036144;28;65736;-36
2022/06/18 10:22:33;;;;;;;9.77;7.95;;;;;;;33.88;55.49;100514.59;5042224;28;70096;-35
2022/06/18 10:25:19;;;;;;;16.88;8.38;;;;;;;33.89;55.70;100525.22;5044473;28;66831;-36
2022/06/18 10:28:26;;;;;;;16.92;8.07;;;;;;;33.57;57.17;100547.59;5046993;28;70108;-36
2022/06/18 10:31:12;;;;;;;10.02;8.18;;;;;;;33.53;58.39;100565.47;5042788;28;66916;-36
2022/06/18 10:34:16;;;;;;;12.05;7.63;;;;;;;32.81;59.49;100517.06;5047433;28;70124;-36
2022/06/18 10:37:08;;;;;;;21.67;7.82;;;;;;;33.30;61.19;100592.75;5052360;28;65232;-36
2022/06/18 10:40:19;;;;;;;13.23;7.03;;;;;;;33.15;62.03;100613.16;5039186;28;69192;-36
2022/06/18 10:42:53;;;;;;;7.80;7.10;;;;;;;33.16;62.02;100627.56;5050886;28;65492;-37
2022/06/18 10:45:41;;;;;;;9.45;7.60;;;;;;;33.01;62.01;100636.22;5056750;28;69985;-37
2022/06/18 10:48:17;;;;;;;12.07;6.45;;;;;;;33.05;61.83;100658.31;5052449;28;66218;-36
2022/06/18 10:50:51;;;;;;;7.05;6.55;;;;;;;32.86;62.43;100665.78;5056269;28;70276;-37
2022/06/18 10:53:25;;;;;;;8.23;6.47;;;;;;;32.90;62.71;100689.53;5061118;28;66306;-36
2022/06/18 10:56:05;;;;;;;7.22;6.50;;;;;;;32.96;63.46;100704.03;5043138;28;70301;-40
2022/06/18 10:58:47;;;;;;;12.98;6.70;;;;;;;32.43;63.16;100608.06;5052585;28;65622;-35
2022/06/18 11:01:30;;;;;;;9.45;6.57;;;;;;;32.85;63.33;100662.25;5039592;28;69908;-34
2022/06/18 11:04:17;;;;;;;10.23;7.00;;;;;;;32.85;63.19;100670.38;5039143;28;65347;-37
2022/06/18 11:06:53;;;;;;;7.75;7.10;;;;;;;32.30;62.70;100613.72;5047403;28;70085;-35
2022/06/18 11:09:33;;;;;;;8.73;8.00;;;;;;;32.78;62.70;100690.59;5048838;28;64066;-35
2022/06/18 11:12:19;;;;;;;15.18;8.32;;;;;;;32.74;62.47;100703.81;5047337;28;69624;-34
2022/06/18 11:14:50;;;;;;;8.77;8.07;;;;;;;32.70;62.64;100667.31;5055382;28;66616;-35
2022/06/18 11:17:22;;;;;;;7.18;6.20;;;;;;;32.56;62.24;100644.19;5046325;28;70847;-36
2022/06/18 11:19:52;;;;;;;;;;;;;;;32.37;63.24;100663.28;5050677;28;65631;-35
2022/06/18 11:22:27;;;;;;;7.25;5.95;;;;;;;32.62;61.88;100673.13;5054221;28;69812;-35
2022/06/18 11:25:01;;;;;;;6.80;6.20;;;;;;;32.60;60.95;100683.41;5044583;28;65949;-35
2022/06/18 11:27:37;;;;;;;6.18;5.57;;;;;;;32.56;60.42;100684.94;5056819;28;69474;-36
2022/06/18 11:30:21;;;;;;;6.00;5.53;;;;;;;32.56;60.30;100703.94;5038201;28;67343;-35
2022/06/18 11:32:52;;;;;;;6.00;4.85;;;;;;;32.49;60.40;100721.19;5047024;28;69913;-33
2022/06/18 11:35:30;;;;;;;8.43;5.00;;;;;;;32.05;60.71;100671.75;5043743;28;66185;-34
2022/06/18 11:38:05;;;;;;;8.70;4.63;;;;;;;32.52;61.00;100740.78;5053633;28;69213;-37
2022/06/18 11:40:37;;;;;;;6.75;4.57;;;;;;;32.45;61.03;100738.94;5039988;28;65336;-34
2022/06/18 11:43:22;;;;;;;12.05;5.25;;;;;;;32.46;61.04;100737.13;5052332;28;69992;-35
2022/06/18 11:46:05;;;;;;;4.63;4.28;;;;;;;32.11;60.25;100680.84;5043782;28;65500;-35
2022/06/18 11:49:00;;;;;;;7.53;5.22;;;;;;;32.29;59.95;100742.38;5044821;28;69562;-35
2022/06/18 11:51:47;;;;;;;6.03;5.13;;;;;;;32.33;59.51;100738.13;5047029;28;66215;-35
2022/06/18 11:54:49;;;;;;;5.88;5.28;;;;;;;31.83;58.98;100679.59;5048258;28;70292;-36
2022/06/18 11:57:30;;;;;;;;;;;;;;;31.97;59.86;100756.19;5049075;28;66224;-36
2022/06/18 12:00:23;;;;;;;5.13;4.20;;;;;;;31.76;59.64;100705.13;5038307;28;70111;-35
2022/06/18 12:03:11;;;;;;;;;;;;;;;31.94;59.65;100755.84;5043332;28;66564;-34
2022/06/18 12:05:59;;;;;;;8.02;4.88;;;;;;;32.15;59.28;100749.03;5054045;28;69687;-36
2022/06/18 12:08:31;;;;;;;9.60;5.97;;;;;;;32.18;61.01;100748.56;5050597;28;66535;-35
2022/06/18 12:11:15;;;;;;;6.90;6.25;;;;;;;32.10;62.35;100738.09;5049864;28;69640;-37
2022/06/18 12:13:48;;;;;;;6.88;6.28;;;;;;;32.05;62.81;100755.88;5034853;28;66481;-35
2022/06/18 12:16:42;;;;;;;11.57;7.57;;;;;;;31.85;63.15;100739.03;5051159;28;70165;-37
2022/06/18 12:19:39;;;;;;;9.93;7.20;;;;;;;31.04;63.82;100615.63;5023611;28;64666;-39
2022/06/18 12:22:33;;;;;;;8.43;7.70;;;;;;;31.66;63.82;100740.13;5034518;28;69873;-38